createdAt,value
2019-04-06T00:02:16.311Z,68.47
2019-04-06T00:04:47.487Z,70.13
2019-04-06T00:07:18.274Z,75.13
2019-04-06T00:09:49.161Z,72.23
2019-04-06T00:12:21.117Z,69.67
2019-04-06T00:14:52.007Z,66.43
2019-04-06T00:17:22.895Z,74.00
2019-04-06T00:19:54.037Z,73.57
2019-04-06T00:22:24.934Z,67.90
2019-04-06T00:24:55.853Z,68.30
2019-04-06T00:27:26.874Z,72.63
2019-04-06T00:30:01.844Z,61.90
2019-04-06T00:32:40.697Z,72.97
2019-04-06T00:35:11.546Z,73.37
2019-04-06T00:37:45.171Z,77.00
2019-04-06T00:40:16.033Z,75.03
2019-04-06T00:42:46.934Z,75.17
2019-04-06T00:45:17.762Z,70.07
2019-04-06T00:47:48.526Z,70.00
2019-04-06T00:50:19.404Z,78.93
2019-04-06T00:52:50.495Z,72.43
2019-04-06T00:55:21.489Z,75.80
2019-04-06T00:57:55.510Z,74.87
2019-04-06T01:00:26.446Z,75.27
2019-04-06T01:02:57.259Z,75.83
2019-04-06T01:05:28.724Z,75.00
2019-04-06T01:08:00.891Z,75.10
2019-04-06T01:10:33.667Z,71.07
2019-04-06T01:13:04.547Z,72.70
2019-04-06T01:15:36.726Z,71.97
2019-04-06T01:18:07.482Z,73.67
2019-04-06T01:20:38.306Z,69.40
2019-04-06T01:23:10.213Z,70.63
2019-04-06T01:25:44.161Z,72.93
2019-04-06T01:28:14.934Z,72.43
2019-04-06T01:30:45.982Z,72.67
2019-04-06T01:33:17.073Z,79.83
2019-04-06T01:35:51.573Z,76.87
2019-04-06T01:38:26.172Z,73.07
2019-04-06T01:40:58.881Z,80.00
2019-04-06T01:43:29.946Z,78.33
2019-04-06T01:46:00.743Z,77.20
2019-04-06T01:48:34.649Z,79.20
2019-04-06T02:08:56.945Z,80.80
2019-04-06T02:11:27.839Z,83.80
2019-04-06T02:13:58.720Z,74.63
2019-04-06T02:16:29.611Z,76.23
2019-04-06T02:19:00.485Z,72.60
2019-04-06T02:21:31.351Z,80.63
2019-04-06T02:24:02.276Z,76.60
2019-04-06T02:26:33.235Z,81.30
2019-04-06T02:29:04.148Z,78.43
2019-04-06T02:32:02.580Z,76.17
2019-04-06T02:34:52.688Z,68.10
2019-04-06T02:37:45.411Z,79.40
2019-04-06T02:40:33.174Z,83.67
2019-04-06T02:43:07.576Z,78.00
2019-04-06T02:45:39.633Z,72.93
2019-04-06T02:48:10.470Z,90.03
2019-04-06T02:50:41.435Z,81.60
2019-04-06T02:53:12.216Z,80.73
2019-04-06T02:55:43.204Z,82.13
2019-04-06T02:58:14.045Z,79.43
2019-04-06T03:00:46.000Z,79.37
2019-04-06T03:03:16.947Z,81.53
2019-04-06T03:05:48.868Z,72.23
2019-04-06T03:08:19.705Z,82.33
2019-04-06T03:10:58.956Z,76.10
2019-04-06T03:13:31.907Z,83.27
2019-04-06T03:16:03.058Z,79.27
2019-04-06T03:18:33.886Z,80.80
2019-04-06T03:21:05.092Z,85.43
2019-04-06T03:23:49.542Z,80.23
2019-04-06T03:26:08.434Z,85.07
2019-04-06T03:28:39.286Z,82.00
2019-04-06T03:31:11.403Z,75.97
2019-04-06T03:33:45.153Z,78.30
2019-04-06T03:36:15.913Z,76.13
2019-04-06T03:38:46.801Z,82.77
2019-04-06T03:41:17.673Z,83.37
2019-04-06T03:43:48.662Z,78.20
2019-04-06T03:46:19.455Z,84.23
2019-04-06T03:48:50.344Z,85.30
2019-04-06T03:51:21.090Z,75.73
2019-04-06T03:53:51.988Z,84.47
2019-04-06T03:56:22.802Z,76.33
2019-04-06T03:58:53.580Z,76.70
2019-04-06T04:01:24.393Z,80.87
2019-04-06T04:03:55.247Z,76.77
2019-04-06T04:06:26.058Z,81.37
2019-04-06T04:08:56.816Z,83.70
2019-04-06T04:11:31.058Z,83.97
2019-04-06T04:14:01.850Z,80.73
2019-04-06T04:16:32.681Z,84.23
2019-04-06T04:19:03.559Z,92.97
2019-04-06T04:21:34.395Z,81.40
2019-04-06T04:24:05.261Z,78.63
2019-04-06T04:26:36.337Z,83.40
2019-04-06T04:29:08.331Z,82.37
2019-04-06T04:31:39.123Z,87.33
2019-04-06T04:34:10.014Z,81.60
2019-04-06T04:36:41.068Z,87.43
2019-04-06T04:39:11.909Z,81.77
2019-04-06T04:41:42.927Z,90.37
2019-04-06T04:44:15.215Z,86.43
2019-04-06T04:46:46.028Z,92.07
2019-04-06T04:49:16.872Z,84.77
2019-04-06T04:51:48.108Z,93.07
2019-04-06T04:54:18.895Z,85.63
2019-04-06T04:56:50.267Z,88.80
2019-04-06T04:59:23.741Z,80.73
2019-04-06T05:01:57.238Z,90.30
2019-04-06T05:04:28.130Z,99.77
2019-04-06T05:06:58.891Z,87.07
2019-04-06T05:09:29.633Z,94.27
2019-04-06T05:12:01.035Z,96.47
2019-04-06T05:15:00.071Z,85.80
2019-04-06T05:17:32.025Z,89.43
2019-04-06T05:20:02.788Z,91.80
2019-04-06T05:22:33.553Z,89.47
2019-04-06T05:25:04.602Z,84.17
2019-04-06T05:27:36.668Z,103.43
2019-04-06T05:30:08.891Z,102.17
2019-04-06T05:32:39.731Z,89.13
2019-04-06T05:35:10.780Z,97.17
2019-04-06T05:37:41.613Z,95.77
2019-04-06T05:40:12.362Z,106.53
2019-04-06T05:42:43.612Z,103.87
2019-04-06T05:45:14.404Z,107.43
2019-04-06T05:47:45.173Z,93.53
2019-04-06T05:50:15.976Z,96.97
2019-04-06T05:52:46.712Z,101.50
2019-04-06T05:55:17.532Z,111.20
2019-04-06T05:57:48.291Z,101.33
2019-04-06T06:00:19.177Z,103.43
2019-04-06T06:02:49.983Z,97.77
2019-04-06T06:05:20.967Z,109.63
2019-04-06T06:07:51.834Z,108.50
2019-04-06T06:10:22.640Z,100.17
2019-04-06T06:12:53.535Z,102.23
2019-04-06T06:15:24.382Z,97.30
2019-04-06T06:17:55.352Z,107.80
2019-04-06T06:20:27.795Z,101.07
2019-04-06T06:22:58.475Z,110.30
2019-04-06T06:25:29.428Z,107.30
2019-04-06T06:28:00.548Z,109.80
2019-04-06T06:30:31.329Z,102.03
2019-04-06T06:33:02.211Z,107.93
2019-04-06T06:35:36.710Z,100.67
2019-04-06T06:38:07.659Z,120.70
2019-04-06T06:40:42.046Z,108.37
2019-04-06T06:43:12.946Z,100.13
2019-04-06T06:45:43.952Z,100.90
2019-04-06T06:48:16.536Z,109.47
2019-04-06T06:50:56.170Z,110.10
2019-04-06T06:53:27.066Z,107.10
2019-04-06T06:55:58.041Z,106.90
2019-04-06T06:58:29.081Z,114.53
2019-04-06T07:00:59.893Z,113.27
2019-04-06T07:03:30.691Z,116.70
2019-04-06T07:06:01.565Z,112.43
2019-04-06T07:08:32.658Z,108.93
2019-04-06T07:11:06.515Z,115.73
2019-04-06T07:13:37.350Z,111.60
2019-04-06T07:16:09.598Z,112.93
2019-04-06T07:18:40.481Z,116.33
2019-04-06T07:21:11.535Z,113.87
2019-04-06T07:23:44.814Z,117.50
2019-04-06T07:26:15.831Z,115.53
2019-04-06T07:28:46.849Z,121.13
2019-04-06T07:31:17.702Z,125.37
2019-04-06T07:33:48.521Z,110.93
2019-04-06T07:36:19.306Z,115.30
2019-04-06T07:38:51.706Z,116.33
2019-04-06T07:41:22.514Z,118.77
2019-04-06T07:43:53.480Z,114.13
2019-04-06T07:46:25.988Z,111.43
2019-04-06T07:49:08.403Z,116.10
2019-04-06T07:51:53.532Z,118.70
2019-04-06T07:54:24.475Z,119.00
2019-04-06T07:56:59.167Z,119.83
2019-04-06T07:59:29.939Z,102.30
2019-04-06T08:02:00.768Z,107.90
2019-04-06T08:04:31.698Z,116.40
2019-04-06T08:07:13.210Z,113.67
2019-04-06T08:09:47.805Z,115.53
2019-04-06T08:12:23.436Z,114.57
2019-04-06T08:14:59.953Z,121.97
2019-04-06T08:17:40.029Z,109.13
2019-04-06T08:20:22.898Z,119.33
2019-04-06T08:26:24.171Z,116.17
2019-04-06T08:29:01.915Z,118.80
2019-04-06T08:31:50.135Z,123.47
2019-04-06T08:34:23.116Z,118.80
2019-04-06T08:36:55.404Z,120.80
2019-04-06T08:39:26.877Z,114.63
2019-04-06T08:42:00.874Z,119.37
2019-04-06T08:44:31.808Z,106.63
2019-04-06T08:47:07.116Z,107.20
2019-04-06T08:49:38.324Z,112.73
2019-04-06T08:52:11.417Z,107.73
2019-04-06T08:54:45.021Z,112.53
2019-04-06T08:57:17.508Z,108.63
2019-04-06T08:59:49.007Z,101.87
2019-04-06T09:02:33.081Z,113.03
2019-04-06T09:05:19.292Z,102.50
2019-04-06T09:07:50.303Z,99.97
2019-04-06T09:10:21.147Z,103.93
2019-04-06T09:12:52.194Z,113.93
2019-04-06T09:15:28.559Z,100.63
2019-04-06T09:17:59.661Z,116.20
2019-04-06T09:20:32.134Z,104.10
2019-04-06T09:23:05.297Z,111.97
2019-04-06T09:25:41.245Z,99.77
2019-04-06T09:28:15.089Z,102.20
2019-04-06T09:30:48.053Z,99.40
2019-04-06T09:33:20.019Z,100.33
2019-04-06T09:36:02.438Z,104.73
2019-04-06T09:38:40.811Z,103.27
2019-04-06T09:41:11.713Z,88.43
2019-04-06T09:43:45.410Z,99.77
2019-04-06T09:46:36.043Z,97.40
2019-04-06T09:49:36.178Z,93.60
2019-04-06T09:52:30.615Z,90.37
2019-04-06T09:55:22.282Z,92.70
2019-04-06T09:58:09.531Z,94.13
2019-04-06T10:00:58.543Z,96.77
2019-04-06T10:03:47.747Z,93.47
2019-04-06T10:06:40.828Z,86.73
2019-04-06T10:09:34.291Z,81.97
2019-04-06T10:12:31.152Z,86.07
2019-04-06T10:15:36.312Z,82.60
2019-04-06T10:18:23.707Z,86.53
2019-04-06T10:21:19.035Z,90.60
2019-04-06T10:24:04.302Z,87.67
2019-04-06T10:26:54.081Z,88.80
2019-04-06T10:29:48.833Z,89.70
2019-04-06T10:32:36.607Z,89.83
2019-04-06T10:35:41.976Z,85.63
2019-04-06T10:38:45.112Z,94.27
2019-04-06T10:41:37.331Z,91.10
2019-04-06T10:44:28.455Z,86.57
2019-04-06T10:47:18.045Z,84.40
2019-04-06T10:52:54.243Z,80.70
2019-04-06T10:55:57.642Z,86.47
2019-04-06T10:58:47.406Z,83.73
2019-04-06T11:01:30.643Z,78.90
2019-04-06T11:04:23.846Z,77.67
2019-04-06T11:07:12.559Z,76.50
2019-04-06T11:10:04.426Z,83.57
2019-04-06T11:12:50.389Z,75.53
2019-04-06T11:15:43.100Z,80.20
2019-04-06T11:18:42.834Z,82.07
2019-04-06T11:21:35.508Z,79.33
2019-04-06T11:24:30.417Z,77.80
2019-04-06T11:27:29.534Z,76.80
2019-04-06T11:30:13.952Z,80.63
2019-04-06T11:33:04.823Z,79.20
2019-04-06T11:35:48.426Z,74.17
2019-04-06T11:38:50.415Z,71.67
2019-04-06T11:41:46.661Z,68.83
2019-04-06T11:44:40.869Z,55.90
2019-04-06T11:47:23.728Z,57.00
2019-04-06T11:50:18.480Z,54.43
2019-04-06T11:53:11.357Z,54.33
2019-04-06T11:55:57.685Z,58.37
2019-04-06T11:58:38.099Z,56.93
2019-04-06T12:01:44.851Z,55.13
2019-04-06T12:04:37.839Z,53.87
2019-04-06T12:07:14.020Z,58.60
2019-04-06T12:10:16.129Z,60.87
2019-04-06T12:12:57.258Z,56.50
2019-04-06T12:15:47.799Z,53.50
2019-04-06T12:18:31.583Z,57.33
2019-04-06T12:21:24.551Z,50.97
2019-04-06T12:24:10.932Z,53.20
2019-04-06T12:26:58.008Z,52.87
2019-04-06T12:29:57.131Z,53.90
2019-04-06T12:32:45.727Z,54.13
2019-04-06T12:35:38.533Z,53.33
2019-04-06T12:38:28.513Z,57.93
2019-04-06T12:41:33.677Z,62.37
2019-04-06T12:44:25.821Z,58.40
2019-04-06T12:47:09.563Z,58.30
2019-04-06T12:49:51.964Z,55.60
2019-04-06T12:52:35.900Z,57.97
2019-04-06T12:58:41.997Z,58.70
2019-04-06T13:01:42.967Z,61.83
2019-04-06T13:04:38.140Z,52.30
2019-04-06T13:07:29.536Z,57.40
2019-04-06T13:10:18.336Z,55.47
2019-04-06T13:13:11.216Z,59.50
2019-04-06T13:16:00.347Z,56.43
2019-04-06T13:22:57.287Z,53.53
2019-04-06T13:29:50.411Z,58.80
2019-04-06T13:32:37.355Z,62.70
2019-04-06T13:35:31.121Z,58.07
2019-04-06T13:38:25.153Z,59.53
2019-04-06T13:41:34.839Z,55.87
2019-04-06T13:44:42.844Z,60.43
2019-04-06T13:47:40.101Z,59.40
2019-04-06T13:51:18.299Z,59.90
2019-04-06T13:54:09.231Z,61.43
2019-04-06T13:57:01.568Z,56.07
2019-04-06T13:59:54.622Z,59.73
2019-04-06T14:06:13.825Z,57.17
2019-04-06T14:09:06.712Z,61.83
2019-04-06T14:11:58.454Z,57.30
2019-04-06T14:14:52.998Z,67.47
2019-04-06T14:17:41.584Z,61.77
2019-04-06T14:20:55.846Z,64.83
2019-04-06T14:23:49.935Z,66.30
2019-04-06T14:26:31.898Z,65.50
2019-04-06T14:29:25.204Z,63.03
2019-04-06T14:32:39.647Z,57.23
2019-04-06T14:35:46.135Z,61.23
2019-04-06T14:38:41.975Z,60.17
2019-04-06T14:41:33.038Z,63.00
2019-04-06T14:44:21.754Z,64.20
2019-04-06T14:47:10.072Z,65.70
2019-04-06T14:49:55.748Z,64.27
2019-04-06T14:56:25.790Z,60.63
2019-04-06T15:01:21.711Z,63.20
2019-04-06T15:03:37.883Z,65.80
2019-04-06T15:07:09.544Z,65.07
2019-04-06T15:10:04.370Z,65.77
2019-04-06T15:19:36.133Z,73.60
2019-04-06T15:21:00.630Z,62.57
2019-04-06T15:24:09.938Z,59.40
2019-04-06T15:27:27.606Z,64.17
2019-04-06T15:30:58.666Z,61.73
2019-04-06T15:36:59.181Z,68.57
2019-04-06T15:44:35.800Z,64.17
2019-04-06T15:47:25.471Z,67.23
2019-04-06T15:50:21.278Z,67.03
2019-04-06T15:53:14.041Z,62.30
2019-04-06T15:56:02.262Z,62.47
2019-04-06T15:58:42.652Z,63.40
2019-04-06T16:01:42.118Z,63.10
2019-04-06T16:04:30.608Z,64.90
2019-04-06T16:07:12.805Z,63.60
2019-04-06T16:10:06.734Z,65.23
2019-04-06T16:13:13.396Z,64.17
2019-04-06T16:16:42.142Z,61.87
2019-04-06T16:19:21.296Z,62.67
2019-04-06T16:22:18.606Z,58.77
2019-04-06T16:25:09.721Z,60.07
2019-04-06T16:28:14.856Z,57.33
2019-04-06T16:31:06.506Z,57.73
2019-04-06T16:33:53.487Z,53.50
2019-04-06T16:36:51.957Z,58.10
2019-04-06T16:39:44.777Z,57.13
2019-04-06T16:42:51.587Z,58.57
2019-04-06T16:45:43.353Z,56.77
2019-04-06T16:48:43.299Z,61.03
2019-04-06T16:51:54.479Z,57.67
2019-04-06T16:54:49.429Z,57.87
2019-04-06T16:57:42.607Z,61.37
2019-04-06T17:00:48.713Z,57.10
2019-04-06T17:03:25.752Z,59.30
2019-04-06T17:06:16.927Z,64.40
2019-04-06T17:08:56.589Z,60.20
2019-04-06T17:11:45.434Z,64.43
2019-04-06T17:14:53.866Z,63.20
2019-04-06T17:17:42.405Z,66.40
2019-04-06T17:20:31.163Z,74.63
2019-04-06T17:23:19.935Z,74.77
2019-04-06T17:26:09.703Z,73.00
2019-04-06T17:28:59.974Z,76.13
2019-04-06T17:31:52.878Z,71.00
2019-04-06T17:34:53.075Z,77.33
2019-04-06T17:37:34.610Z,77.47
2019-04-06T17:40:42.708Z,82.07
2019-04-06T17:43:33.744Z,80.03
2019-04-06T17:46:25.358Z,83.87
2019-04-06T17:52:35.894Z,90.30
2019-04-06T17:55:22.695Z,94.73
2019-04-06T17:58:34.817Z,95.73
2019-04-06T18:01:21.166Z,105.10
2019-04-06T18:04:27.540Z,102.07
2019-04-06T18:07:09.321Z,103.20
2019-04-06T18:10:17.330Z,102.67
2019-04-06T18:13:15.046Z,103.43
2019-04-06T18:15:59.490Z,108.43
2019-04-06T18:18:30.626Z,107.57
2019-04-06T18:21:06.195Z,101.67
2019-04-06T18:23:36.690Z,108.23
2019-04-06T18:26:19.273Z,110.30
2019-04-06T18:28:51.811Z,104.57
2019-04-06T18:31:56.121Z,116.47
2019-04-06T18:34:50.907Z,112.30
2019-04-06T18:37:40.155Z,109.53
2019-04-06T18:40:27.084Z,112.93
2019-04-06T18:43:07.319Z,110.77
2019-04-06T18:46:15.925Z,113.67
2019-04-06T18:49:03.206Z,114.83
2019-04-06T18:52:00.603Z,116.50
2019-04-06T18:54:48.822Z,111.97
2019-04-06T18:57:33.813Z,117.40
2019-04-06T19:00:43.556Z,118.67
2019-04-06T19:03:14.685Z,114.03
2019-04-06T19:05:45.233Z,114.80
2019-04-06T19:08:26.605Z,116.53
2019-04-06T19:11:17.571Z,117.07
2019-04-06T19:14:03.993Z,117.43
2019-04-06T19:16:49.499Z,127.33
2019-04-06T19:22:39.954Z,119.50
2019-04-06T19:25:19.576Z,123.07
2019-04-06T19:28:07.080Z,130.00
2019-04-06T19:30:42.870Z,128.23
2019-04-06T19:33:24.579Z,127.43
2019-04-06T19:36:31.615Z,119.60
2019-04-06T19:39:09.657Z,138.60
2019-04-06T19:41:45.017Z,128.67
2019-04-06T19:44:19.415Z,135.13
2019-04-06T19:47:32.800Z,128.20
2019-04-06T19:53:00.145Z,139.70
2019-04-06T19:56:18.819Z,136.73
2019-04-06T20:02:57.898Z,135.57
2019-04-06T20:05:24.163Z,134.43
2019-04-06T20:08:18.457Z,146.03
2019-04-06T20:11:13.068Z,143.00
2019-04-06T20:14:04.272Z,131.77
2019-04-06T20:16:48.538Z,143.60
2019-04-06T20:19:32.759Z,138.77
2019-04-06T20:22:11.835Z,138.77
2019-04-06T20:24:56.699Z,141.73
2019-04-06T20:27:28.550Z,144.07
2019-04-06T20:30:01.103Z,149.10
2019-04-06T20:32:33.721Z,143.53
2019-04-06T20:35:11.944Z,135.30
2019-04-06T20:37:47.075Z,137.20
2019-04-06T20:40:20.932Z,137.07
2019-04-06T20:42:53.307Z,146.50
2019-04-06T20:45:24.888Z,148.47
2019-04-06T20:47:59.551Z,152.93
2019-04-06T20:50:37.418Z,147.30
2019-04-06T20:53:08.733Z,143.87
2019-04-06T20:55:49.812Z,148.73
2019-04-06T20:58:20.793Z,138.03
2019-04-06T21:00:53.536Z,146.67
2019-04-06T21:03:24.469Z,158.40
2019-04-06T21:05:56.453Z,153.70
2019-04-06T21:08:30.886Z,151.30
2019-04-06T21:11:02.004Z,144.10
2019-04-06T21:13:34.179Z,143.63
2019-04-06T21:16:05.012Z,159.00
2019-04-06T21:18:35.790Z,163.13
2019-04-06T21:21:06.569Z,152.23
2019-04-06T21:23:37.458Z,158.07
2019-04-06T21:26:08.302Z,164.13
2019-04-06T21:28:39.239Z,154.03
2019-04-06T21:31:10.026Z,158.10
2019-04-06T21:33:45.658Z,158.00
2019-04-06T21:36:16.213Z,152.20
2019-04-06T21:38:47.079Z,161.37
2019-04-06T21:41:17.922Z,173.83
2019-04-06T21:43:49.511Z,161.23
2019-04-06T21:46:20.485Z,169.77
2019-04-06T21:48:51.289Z,163.77
2019-04-06T21:51:22.096Z,176.87
2019-04-06T21:53:53.016Z,185.97
2019-04-06T21:56:27.082Z,185.23
2019-04-06T21:58:58.346Z,169.17
2019-04-06T22:01:29.596Z,184.17
2019-04-06T22:04:00.506Z,184.30
2019-04-06T22:06:32.327Z,168.43
2019-04-06T22:09:04.721Z,176.23
2019-04-06T22:11:37.089Z,186.77
2019-04-06T22:14:08.276Z,186.10
2019-04-06T22:16:40.351Z,170.47
2019-04-06T22:19:11.197Z,182.47
2019-04-06T22:21:42.025Z,179.50
2019-04-06T22:24:15.087Z,188.30
2019-04-06T22:26:45.974Z,162.27
2019-04-06T22:29:17.303Z,174.77
2019-04-06T22:31:48.291Z,175.33
2019-04-06T22:34:19.067Z,183.63
2019-04-06T22:36:51.544Z,168.93
2019-04-06T22:39:22.571Z,173.93
2019-04-06T22:41:53.692Z,175.53
2019-04-06T22:44:24.649Z,211.73
2019-04-06T22:46:55.484Z,199.00
2019-04-06T22:49:26.363Z,212.07
2019-04-06T22:51:57.162Z,183.33
2019-04-06T22:54:30.295Z,205.60
2019-04-06T22:57:01.120Z,197.57
2019-04-06T22:59:32.529Z,209.30
2019-04-06T23:02:04.484Z,186.40
2019-04-06T23:04:49.520Z,193.03
2019-04-06T23:07:17.765Z,199.53
2019-04-06T23:09:48.638Z,194.33
2019-04-06T23:12:19.430Z,195.73
2019-04-06T23:14:50.283Z,185.87
2019-04-06T23:17:21.223Z,198.77
2019-04-06T23:19:52.306Z,177.93
2019-04-06T23:22:23.268Z,197.53
2019-04-06T23:24:54.743Z,185.77
2019-04-06T23:27:27.064Z,184.43
2019-04-06T23:29:57.856Z,196.00
2019-04-06T23:32:28.694Z,180.97
2019-04-06T23:35:02.295Z,179.03
2019-04-06T23:37:34.399Z,182.30
2019-04-06T23:40:06.552Z,191.40
2019-04-06T23:42:37.635Z,178.50
2019-04-06T23:45:08.481Z,167.37
2019-04-06T23:47:40.077Z,164.33
2019-04-06T23:50:11.103Z,176.73
2019-04-06T23:52:42.325Z,164.97
2019-04-06T23:55:14.169Z,169.90
2019-04-06T23:57:45.497Z,168.07
